createdAt,value
2023-02-13T00:00:25.616Z,7.50
2023-02-13T00:01:48.041Z,7.46
2023-02-13T00:03:09.854Z,7.50
2023-02-13T00:04:32.288Z,7.43
2023-02-13T00:05:55.195Z,7.47
2023-02-13T00:07:17.857Z,7.49
2023-02-13T00:08:40.409Z,7.48
2023-02-13T00:10:01.440Z,7.46
2023-02-13T00:11:23.891Z,7.48
2023-02-13T00:12:45.192Z,7.45
2023-02-13T00:14:10.796Z,7.49
2023-02-13T00:15:35.933Z,7.49
2023-02-13T00:17:03.066Z,7.47
2023-02-13T00:18:49.025Z,7.45
2023-02-13T00:20:21.081Z,7.46
2023-02-13T00:21:48.937Z,7.41
2023-02-13T00:23:13.732Z,7.44
2023-02-13T00:24:39.883Z,7.40
2023-02-13T00:26:09.830Z,7.43
2023-02-13T00:27:34.550Z,7.46
2023-02-13T00:29:12.981Z,7.47
2023-02-13T00:30:36.671Z,7.46
2023-02-13T00:32:00.399Z,7.44
2023-02-13T00:33:34.263Z,7.43
2023-02-13T00:35:08.994Z,7.39
2023-02-13T00:36:36.641Z,7.41
2023-02-13T00:38:07.435Z,7.44
2023-02-13T00:39:32.016Z,7.38
2023-02-13T00:40:53.424Z,7.47
2023-02-13T00:42:24.503Z,7.47
2023-02-13T00:43:47.852Z,7.47
2023-02-13T00:45:13.948Z,7.48
2023-02-13T00:46:48.614Z,7.45
2023-02-13T00:48:14.741Z,7.48
2023-02-13T00:49:38.783Z,7.47
2023-02-13T00:51:03.105Z,7.50
2023-02-13T00:52:27.644Z,7.45
2023-02-13T00:53:54.137Z,7.50
2023-02-13T00:55:15.736Z,7.50
2023-02-13T00:56:38.087Z,7.52
2023-02-13T00:58:05.352Z,7.49
2023-02-13T00:59:28.064Z,7.54
2023-02-13T01:00:53.039Z,7.53
2023-02-13T01:02:17.854Z,7.55
2023-02-13T01:03:39.212Z,7.49
2023-02-13T01:05:02.096Z,7.57
2023-02-13T01:06:30.471Z,7.50
2023-02-13T01:07:56.304Z,7.57
2023-02-13T01:09:25.937Z,7.58
2023-02-13T01:10:53.637Z,7.53
2023-02-13T01:12:17.486Z,7.52
2023-02-13T01:13:39.099Z,7.54
2023-02-13T01:15:05.143Z,7.55
2023-02-13T01:16:39.203Z,7.55
2023-02-13T01:18:02.085Z,7.53
2023-02-13T01:19:28.068Z,7.60
2023-02-13T01:22:11.314Z,7.59
2023-02-13T01:23:37.795Z,7.55
2023-02-13T01:25:05.989Z,7.55
2023-02-13T01:26:31.592Z,7.58
2023-02-13T01:27:57.058Z,7.55
2023-02-13T01:29:21.072Z,7.57
2023-02-13T01:31:11.733Z,7.54
2023-02-13T01:32:38.213Z,7.53
2023-02-13T01:33:59.865Z,7.53
2023-02-13T01:35:24.582Z,7.54
2023-02-13T01:36:49.831Z,7.55
2023-02-13T01:38:13.748Z,7.55
2023-02-13T01:39:35.887Z,7.55
2023-02-13T01:40:59.267Z,7.55
2023-02-13T01:42:26.891Z,7.55
2023-02-13T01:43:54.081Z,7.52
2023-02-13T01:45:27.808Z,7.55
2023-02-13T01:46:52.886Z,7.53
2023-02-13T01:48:27.515Z,7.54
2023-02-13T01:50:02.516Z,7.54
2023-02-13T01:53:31.812Z,7.49
2023-02-13T01:54:54.991Z,7.50
2023-02-13T01:56:34.316Z,7.48
2023-02-13T01:58:03.399Z,7.49
2023-02-13T01:59:30.615Z,7.48
2023-02-13T02:01:00.128Z,7.47
2023-02-13T02:02:24.635Z,7.48
2023-02-13T02:03:51.938Z,7.47
2023-02-13T02:05:16.399Z,7.53
2023-02-13T02:06:43.948Z,7.54
2023-02-13T02:08:09.933Z,7.54
2023-02-13T02:09:39.406Z,7.53
2023-02-13T02:11:11.708Z,7.50
2023-02-13T02:12:50.508Z,7.51
2023-02-13T02:14:14.344Z,7.53
2023-02-13T02:15:39.370Z,7.53
2023-02-13T02:17:11.421Z,7.51
2023-02-13T02:18:34.400Z,7.50
2023-02-13T02:20:10.866Z,7.50
2023-02-13T02:21:56.355Z,7.49
2023-02-13T02:23:55.472Z,7.49
2023-02-13T02:25:35.863Z,7.46
2023-02-13T02:27:16.004Z,7.40
2023-02-13T02:29:16.701Z,7.45
2023-02-13T02:31:11.832Z,7.43
2023-02-13T02:32:48.836Z,7.38
2023-02-13T02:34:20.893Z,7.33
2023-02-13T02:35:50.518Z,7.41
2023-02-13T02:37:23.480Z,7.41
2023-02-13T02:39:00.384Z,7.38
2023-02-13T02:40:34.374Z,7.39
2023-02-13T02:42:11.003Z,7.33
2023-02-13T02:43:51.009Z,7.38
2023-02-13T02:45:28.276Z,7.36
2023-02-13T02:47:17.426Z,7.34
2023-02-13T02:49:06.590Z,7.33
2023-02-13T02:50:48.816Z,7.34
2023-02-13T02:52:24.667Z,7.28
2023-02-13T02:54:05.145Z,7.35
2023-02-13T02:55:46.024Z,7.27
2023-02-13T02:57:18.195Z,7.30
2023-02-13T02:59:10.994Z,7.31
2023-02-13T03:00:55.545Z,7.34
2023-02-13T03:02:40.636Z,7.31
2023-02-13T03:04:23.733Z,7.31
2023-02-13T03:06:06.073Z,7.26
2023-02-13T03:07:29.436Z,7.31
2023-02-13T03:09:19.605Z,7.28
2023-02-13T03:11:00.357Z,7.30
2023-02-13T03:12:49.717Z,7.31
2023-02-13T03:14:32.405Z,7.26
2023-02-13T03:16:18.883Z,7.24
2023-02-13T03:18:02.111Z,7.27
2023-02-13T03:19:57.543Z,7.28
2023-02-13T03:21:53.067Z,7.31
2023-02-13T03:23:18.852Z,7.31
2023-02-13T03:24:48.113Z,7.29
2023-02-13T03:26:50.531Z,7.28
2023-02-13T03:28:36.757Z,7.31
2023-02-13T03:30:08.059Z,7.32
2023-02-13T03:31:38.149Z,7.26
2023-02-13T03:33:14.303Z,7.26
2023-02-13T03:35:09.893Z,7.27
2023-02-13T03:37:00.660Z,7.30
2023-02-13T03:38:27.528Z,7.36
2023-02-13T03:40:01.648Z,7.28
2023-02-13T03:41:27.482Z,7.29
2023-02-13T03:42:57.331Z,7.36
2023-02-13T03:44:25.891Z,7.39
2023-02-13T03:45:57.497Z,7.39
2023-02-13T03:47:20.188Z,7.38
2023-02-13T03:49:02.400Z,7.36
2023-02-13T03:50:27.462Z,7.39
2023-02-13T03:51:55.124Z,7.39
2023-02-13T03:53:17.184Z,7.36
2023-02-13T03:55:06.855Z,7.40
2023-02-13T03:56:50.314Z,7.38
2023-02-13T03:58:38.174Z,7.38
2023-02-13T04:00:04.501Z,7.39
2023-02-13T04:01:38.292Z,7.38
2023-02-13T04:03:12.514Z,7.39
2023-02-13T04:04:45.451Z,7.34
2023-02-13T04:06:14.684Z,7.34
2023-02-13T04:07:37.252Z,7.34
2023-02-13T04:09:00.359Z,7.40
2023-02-13T04:10:26.517Z,7.42
2023-02-13T04:11:57.262Z,7.41
2023-02-13T04:13:27.623Z,7.38
2023-02-13T04:14:54.918Z,7.41
2023-02-13T04:16:22.560Z,7.40
2023-02-13T04:17:49.312Z,7.39
2023-02-13T04:19:13.123Z,7.35
2023-02-13T04:20:35.859Z,7.36
2023-02-13T04:22:02.904Z,7.32
2023-02-13T04:23:26.418Z,7.30
2023-02-13T04:24:54.961Z,7.36
2023-02-13T04:26:24.105Z,7.32
2023-02-13T04:27:47.078Z,7.32
2023-02-13T04:29:09.654Z,7.24
2023-02-13T04:30:35.282Z,7.27
2023-02-13T04:31:57.894Z,7.26
2023-02-13T04:33:21.211Z,7.27
2023-02-13T04:34:43.170Z,7.25
2023-02-13T04:36:06.846Z,7.20
2023-02-13T04:37:30.674Z,7.16
2023-02-13T04:38:53.325Z,7.20
2023-02-13T04:40:16.489Z,7.14
2023-02-13T04:41:39.015Z,7.15
2023-02-13T04:43:04.948Z,7.16
2023-02-13T04:44:27.267Z,7.12
2023-02-13T04:45:53.216Z,7.15
2023-02-13T04:47:18.800Z,7.08
2023-02-13T04:48:41.188Z,7.05
2023-02-13T04:50:02.792Z,7.04
2023-02-13T04:51:25.613Z,7.08
2023-02-13T04:52:54.587Z,7.03
2023-02-13T04:54:17.418Z,7.06
2023-02-13T04:55:40.097Z,7.05
2023-02-13T04:57:01.706Z,7.02
2023-02-13T04:58:24.609Z,7.07
2023-02-13T04:59:50.685Z,7.05
2023-02-13T05:01:19.457Z,7.09
2023-02-13T05:02:40.730Z,7.06
2023-02-13T05:04:04.306Z,7.03
2023-02-13T05:05:27.200Z,7.06
2023-02-13T05:06:55.531Z,7.04
2023-02-13T05:08:22.489Z,7.04
2023-02-13T05:09:46.132Z,7.05
2023-02-13T05:11:09.022Z,7.03
2023-02-13T05:12:30.562Z,7.06
2023-02-13T05:13:53.406Z,7.02
2023-02-13T05:15:15.293Z,7.03
2023-02-13T05:16:40.669Z,7.04
2023-02-13T05:18:10.943Z,7.02
2023-02-13T05:19:34.182Z,7.00
2023-02-13T05:21:18.523Z,6.97
2023-02-13T05:23:04.880Z,7.00
2023-02-13T05:24:28.785Z,6.94
2023-02-13T05:25:50.953Z,6.97
2023-02-13T05:27:15.914Z,6.97
2023-02-13T05:28:55.456Z,6.99
2023-02-13T05:30:18.110Z,6.96
2023-02-13T05:31:39.542Z,6.88
2023-02-13T05:33:02.347Z,6.89
2023-02-13T05:34:26.403Z,6.93
2023-02-13T05:35:53.445Z,6.87
2023-02-13T05:37:16.516Z,6.95
2023-02-13T05:38:40.617Z,6.90
2023-02-13T05:40:07.820Z,6.91
2023-02-13T05:41:37.907Z,6.89
2023-02-13T05:43:00.365Z,6.87
2023-02-13T05:44:25.711Z,6.93
2023-02-13T05:46:03.230Z,6.84
2023-02-13T05:47:27.937Z,6.83
2023-02-13T05:48:53.238Z,6.84
2023-02-13T05:50:18.609Z,6.91
2023-02-13T05:51:40.953Z,6.84
2023-02-13T05:53:03.516Z,6.84
2023-02-13T05:54:28.559Z,6.89
2023-02-13T05:55:54.807Z,6.91
2023-02-13T05:57:17.759Z,6.85
2023-02-13T05:58:39.389Z,6.92
2023-02-13T06:00:14.817Z,6.87
2023-02-13T06:01:40.185Z,6.92
2023-02-13T06:03:02.908Z,6.88
2023-02-13T06:04:25.307Z,6.92
2023-02-13T06:05:46.454Z,6.88
2023-02-13T06:07:08.730Z,6.90
2023-02-13T06:08:31.297Z,6.85
2023-02-13T06:09:53.491Z,6.89
2023-02-13T06:12:22.223Z,6.92
2023-02-13T06:13:46.396Z,6.87
2023-02-13T06:15:08.782Z,6.93
2023-02-13T06:16:32.883Z,6.90
2023-02-13T06:18:01.318Z,6.93
2023-02-13T06:19:23.641Z,6.86
2023-02-13T06:20:57.454Z,6.90
2023-02-13T06:22:19.816Z,6.91
2023-02-13T06:23:42.287Z,6.89
2023-02-13T06:25:58.073Z,6.94
2023-02-13T06:27:25.569Z,6.90
2023-02-13T06:28:50.673Z,6.93
2023-02-13T06:30:14.474Z,6.89
2023-02-13T06:31:37.215Z,6.93
2023-02-13T06:33:01.936Z,6.97
2023-02-13T06:34:24.255Z,6.99
2023-02-13T06:35:49.773Z,6.93
2023-02-13T06:37:15.584Z,7.00
2023-02-13T06:38:43.368Z,7.01
2023-02-13T06:40:18.332Z,6.95
2023-02-13T06:41:46.410Z,6.99
2023-02-13T06:43:41.025Z,6.94
2023-02-13T06:45:09.552Z,6.99
2023-02-13T06:46:35.407Z,7.03
2023-02-13T06:48:03.678Z,6.98
2023-02-13T06:49:26.613Z,6.97
2023-02-13T06:50:59.788Z,7.01
2023-02-13T06:52:31.918Z,7.01
2023-02-13T06:54:46.328Z,6.99
2023-02-13T06:56:20.047Z,7.04
2023-02-13T06:57:49.208Z,7.02
2023-02-13T06:59:13.892Z,7.08
2023-02-13T07:01:02.306Z,7.08
2023-02-13T07:02:31.787Z,7.11
2023-02-13T07:04:17.153Z,7.08
2023-02-13T07:05:46.565Z,7.13
2023-02-13T07:07:23.462Z,7.15
2023-02-13T07:08:51.552Z,7.19
2023-02-13T07:10:15.389Z,7.21
2023-02-13T07:11:41.805Z,7.20
2023-02-13T07:13:06.279Z,7.23
2023-02-13T07:14:29.244Z,7.25
2023-02-13T07:15:58.279Z,7.18
2023-02-13T07:17:24.669Z,7.28
2023-02-13T07:18:49.236Z,7.28
2023-02-13T07:20:12.735Z,7.24
2023-02-13T07:21:38.279Z,7.27
2023-02-13T07:23:01.639Z,7.32
2023-02-13T07:24:23.853Z,7.36
2023-02-13T07:25:47.116Z,7.39
2023-02-13T07:27:11.277Z,7.40
2023-02-13T07:28:35.236Z,7.36
2023-02-13T07:29:58.329Z,7.42
2023-02-13T07:31:21.142Z,7.44
2023-02-13T07:32:48.531Z,7.42
2023-02-13T07:34:11.195Z,7.49
2023-02-13T07:35:34.334Z,7.50
2023-02-13T07:37:27.909Z,7.49
2023-02-13T07:38:57.698Z,7.53
2023-02-13T07:40:23.340Z,7.56
2023-02-13T07:41:47.997Z,7.59
2023-02-13T07:43:12.037Z,7.60
2023-02-13T07:44:34.878Z,7.58
2023-02-13T07:46:00.799Z,7.63
2023-02-13T07:47:26.363Z,7.63
2023-02-13T07:48:51.923Z,7.72
2023-02-13T07:50:17.692Z,7.69
2023-02-13T07:51:42.986Z,7.75
2023-02-13T07:53:07.493Z,7.81
2023-02-13T07:54:31.378Z,7.79
2023-02-13T07:55:53.836Z,7.83
2023-02-13T07:57:19.722Z,7.86
2023-02-13T07:58:42.384Z,7.92
2023-02-13T08:02:59.191Z,7.85
2023-02-13T08:04:13.502Z,7.86
2023-02-13T08:05:40.749Z,7.92
2023-02-13T08:07:03.353Z,7.98
2023-02-13T08:08:39.065Z,7.95
2023-02-13T08:10:18.554Z,8.01
2023-02-13T08:12:04.105Z,7.98
2023-02-13T08:13:26.711Z,8.10
2023-02-13T08:14:57.222Z,8.08
2023-02-13T08:16:22.424Z,8.13
2023-02-13T08:18:31.056Z,8.13
2023-02-13T08:20:14.927Z,8.08
2023-02-13T08:21:48.484Z,8.08
2023-02-13T08:23:12.946Z,8.10
2023-02-13T08:24:38.377Z,8.18
2023-02-13T08:26:03.613Z,8.17
2023-02-13T08:27:29.088Z,8.20
2023-02-13T08:29:00.488Z,8.27
2023-02-13T08:30:29.317Z,8.30
2023-02-13T08:32:14.078Z,8.31
2023-02-13T08:33:39.995Z,8.36
2023-02-13T08:35:11.181Z,8.44
2023-02-13T08:36:36.828Z,8.46
2023-02-13T08:38:12.120Z,8.38
2023-02-13T08:39:38.180Z,8.41
2023-02-13T08:41:11.002Z,8.46
2023-02-13T08:42:40.118Z,8.51
2023-02-13T08:44:09.922Z,8.49
2023-02-13T08:45:40.906Z,8.44
2023-02-13T08:47:25.694Z,8.48
2023-02-13T08:48:54.790Z,8.48
2023-02-13T08:50:21.764Z,8.45
2023-02-13T08:51:44.479Z,8.50
2023-02-13T08:53:12.945Z,8.49
2023-02-13T08:54:36.802Z,8.53
2023-02-13T08:55:59.820Z,8.54
2023-02-13T08:57:33.336Z,8.46
2023-02-13T08:58:58.431Z,8.49
2023-02-13T09:00:32.023Z,8.50
2023-02-13T09:01:54.913Z,8.49
2023-02-13T09:03:46.222Z,8.54
2023-02-13T09:05:20.422Z,8.54
2023-02-13T09:06:48.387Z,8.58
2023-02-13T09:08:14.014Z,8.51
2023-02-13T09:09:38.946Z,8.67
2023-02-13T09:11:06.832Z,8.66
2023-02-13T09:12:31.728Z,8.65
2023-02-13T09:13:58.184Z,8.73
2023-02-13T09:15:31.281Z,8.76
2023-02-13T09:17:01.378Z,8.74
2023-02-13T09:18:24.159Z,8.79
2023-02-13T09:19:50.246Z,8.77
2023-02-13T09:21:14.215Z,8.80
2023-02-13T09:22:41.407Z,8.75
2023-02-13T09:24:12.643Z,8.78
2023-02-13T09:25:48.189Z,8.72
2023-02-13T09:27:15.679Z,8.78
2023-02-13T09:28:42.382Z,8.78
2023-02-13T09:30:25.311Z,8.95
2023-02-13T09:31:51.881Z,9.06
2023-02-13T09:33:24.282Z,9.12
2023-02-13T09:34:58.666Z,9.24
2023-02-13T09:36:33.301Z,9.28
2023-02-13T09:38:25.650Z,9.35
2023-02-13T09:39:48.324Z,9.40
2023-02-13T09:41:24.677Z,9.48
2023-02-13T09:42:49.681Z,9.45
2023-02-13T09:44:32.550Z,9.58
2023-02-13T09:46:07.251Z,9.65
2023-02-13T09:47:46.492Z,9.71
2023-02-13T09:50:00.427Z,9.80
2023-02-13T09:51:24.004Z,9.88
2023-02-13T09:52:52.310Z,9.97
2023-02-13T09:54:37.251Z,9.92
2023-02-13T09:56:23.697Z,9.97
2023-02-13T09:57:59.709Z,10.05
2023-02-13T09:59:58.447Z,10.19
2023-02-13T10:01:30.099Z,10.23
2023-02-13T10:03:30.661Z,10.41
2023-02-13T10:05:20.152Z,10.59
2023-02-13T10:06:58.325Z,10.84
2023-02-13T10:10:49.259Z,11.07
2023-02-13T10:13:04.386Z,11.22
2023-02-13T10:14:41.222Z,11.36
2023-02-13T10:16:16.164Z,11.42
2023-02-13T10:17:53.908Z,11.45
2023-02-13T10:19:43.618Z,11.47
2023-02-13T10:24:44.323Z,11.70
2023-02-13T10:31:19.278Z,11.99
2023-02-13T10:33:12.600Z,12.07
2023-02-13T10:35:01.696Z,12.17
2023-02-13T10:36:34.534Z,12.18
2023-02-13T10:38:00.100Z,12.22
2023-02-13T10:39:39.285Z,12.33
2023-02-13T10:41:32.926Z,12.33
2023-02-13T10:43:08.734Z,12.42
2023-02-13T10:45:02.315Z,12.43
2023-02-13T10:46:44.559Z,12.31
2023-02-13T10:49:01.768Z,12.28
2023-02-13T10:50:45.160Z,12.09
2023-02-13T10:52:34.001Z,12.04
2023-02-13T10:54:23.826Z,11.99
2023-02-13T10:56:13.058Z,11.97
2023-02-13T10:58:03.936Z,11.88
2023-02-13T10:59:49.599Z,11.80
2023-02-13T11:01:35.783Z,11.71
2023-02-13T11:03:01.807Z,11.79
2023-02-13T11:04:32.251Z,11.70
2023-02-13T11:06:07.521Z,11.60
2023-02-13T11:07:49.379Z,11.58
2023-02-13T11:09:35.483Z,11.43
2023-02-13T11:11:03.354Z,11.26
2023-02-13T11:12:35.580Z,11.21
2023-02-13T11:14:58.362Z,11.21
2023-02-13T11:16:26.414Z,11.15
2023-02-13T11:17:55.076Z,11.14
2023-02-13T11:19:26.119Z,11.06
2023-02-13T11:21:09.540Z,10.95
2023-02-13T11:22:35.145Z,10.99
2023-02-13T11:24:06.775Z,11.04
2023-02-13T11:25:37.733Z,10.99
2023-02-13T11:27:09.501Z,11.09
2023-02-13T11:28:35.964Z,11.11
2023-02-13T11:30:02.212Z,11.18
2023-02-13T11:31:39.896Z,11.19
2023-02-13T11:39:26.333Z,11.21
2023-02-13T11:40:52.493Z,11.07
2023-02-13T11:42:42.304Z,10.90
2023-02-13T11:44:06.579Z,10.84
2023-02-13T11:45:37.854Z,10.74
2023-02-13T11:47:04.322Z,10.68
2023-02-13T11:48:28.646Z,10.61
2023-02-13T11:50:04.793Z,10.57
2023-02-13T11:51:50.833Z,10.42
2023-02-13T11:53:25.920Z,10.42
2023-02-13T11:54:58.892Z,10.39
2023-02-13T11:56:21.925Z,10.42
2023-02-13T11:57:57.176Z,10.45
2023-02-13T11:59:26.338Z,10.53
2023-02-13T12:01:09.101Z,10.49
2023-02-13T12:02:33.319Z,10.51
2023-02-13T12:04:07.966Z,10.52
2023-02-13T12:05:31.306Z,10.54
2023-02-13T12:07:05.058Z,10.54
2023-02-13T12:08:28.316Z,10.60
2023-02-13T12:09:58.596Z,10.58
2023-02-13T12:11:26.865Z,10.64
2023-02-13T12:12:56.665Z,10.76
2023-02-13T12:14:25.008Z,10.71
2023-02-13T12:15:57.922Z,10.71
2023-02-13T12:17:32.150Z,10.69
2023-02-13T12:18:58.658Z,10.68
2023-02-13T12:20:28.877Z,10.77
2023-02-13T12:22:22.225Z,10.70
2023-02-13T12:24:03.276Z,10.67
2023-02-13T12:26:22.031Z,10.53
2023-02-13T12:28:03.059Z,10.49
2023-02-13T12:29:51.015Z,10.40
2023-02-13T12:31:41.621Z,10.24
2023-02-13T12:33:26.809Z,10.22
2023-02-13T12:35:20.462Z,10.09
2023-02-13T12:36:54.141Z,10.02
2023-02-13T12:38:56.945Z,9.95
2023-02-13T12:41:17.944Z,9.90
2023-02-13T12:42:59.179Z,9.92
2023-02-13T12:45:28.037Z,9.95
2023-02-13T12:47:14.376Z,10.03
2023-02-13T12:48:48.023Z,10.07
2023-02-13T12:53:42.373Z,10.10
2023-02-13T12:55:33.691Z,10.05
2023-02-13T12:57:38.614Z,10.05
2023-02-13T12:59:31.852Z,10.08
2023-02-13T13:01:03.982Z,10.06
2023-02-13T13:03:09.579Z,10.03
2023-02-13T13:04:53.012Z,10.03
2023-02-13T13:06:48.670Z,10.07
2023-02-13T13:08:44.872Z,10.03
2023-02-13T13:10:27.126Z,10.10
2023-02-13T13:12:24.914Z,10.07
2023-02-13T13:14:00.829Z,10.09
2023-02-13T13:15:34.324Z,10.12
2023-02-13T13:17:05.539Z,10.11
2023-02-13T13:18:41.830Z,10.07
2023-02-13T13:20:26.028Z,10.11
2023-02-13T13:21:54.272Z,10.09
2023-02-13T13:23:41.366Z,10.13
2023-02-13T13:25:16.173Z,10.09
2023-02-13T13:54:58.058Z,9.63
2023-02-13T14:00:33.850Z,9.55
2023-02-13T14:03:22.788Z,9.48
2023-02-13T14:07:17.998Z,9.35
2023-02-13T14:09:01.334Z,9.29
2023-02-13T14:11:17.193Z,9.26
2023-02-13T14:13:41.372Z,9.25
2023-02-13T14:15:37.764Z,9.31
2023-02-13T14:17:07.600Z,9.26
2023-02-13T14:19:23.751Z,9.29
2023-02-13T14:21:12.866Z,9.25
2023-02-13T14:22:45.962Z,9.22
2023-02-13T14:24:13.964Z,9.23
2023-02-13T14:25:39.467Z,9.21
2023-02-13T14:27:06.180Z,9.24
2023-02-13T14:28:31.387Z,9.18
2023-02-13T14:30:01.930Z,9.16
2023-02-13T14:31:31.937Z,9.21
2023-02-13T14:32:55.476Z,9.18
2023-02-13T14:34:29.785Z,9.18
2023-02-13T14:36:06.848Z,9.17
2023-02-13T14:37:37.039Z,9.15
2023-02-13T14:39:03.045Z,9.12
2023-02-13T14:40:48.578Z,9.16
2023-02-13T14:42:24.571Z,9.13
2023-02-13T14:44:39.639Z,9.05
2023-02-13T14:47:02.350Z,9.09
2023-02-13T14:48:44.453Z,9.02
2023-02-13T14:50:21.339Z,8.99
2023-02-13T14:51:54.338Z,9.02
2023-02-13T14:54:14.120Z,9.03
2023-02-13T14:55:52.308Z,9.00
2023-02-13T14:57:43.526Z,8.98
2023-02-13T14:59:18.118Z,8.99
2023-02-13T15:00:47.850Z,8.98
2023-02-13T15:02:24.146Z,8.97
2023-02-13T15:03:56.293Z,8.94
2023-02-13T15:05:22.436Z,9.00
2023-02-13T15:06:48.239Z,8.96
2023-02-13T15:08:18.073Z,9.00
2023-02-13T15:09:44.830Z,9.00
2023-02-13T15:11:35.678Z,8.93
2023-02-13T15:12:59.711Z,8.95
2023-02-13T15:14:48.634Z,8.99
2023-02-13T15:16:19.345Z,8.92
2023-02-13T15:17:45.457Z,8.94
2023-02-13T15:19:08.492Z,8.92
2023-02-13T15:20:39.563Z,8.88
2023-02-13T15:22:09.317Z,8.89
2023-02-13T15:23:35.261Z,8.95
2023-02-13T15:25:04.200Z,8.90
2023-02-13T15:26:32.132Z,8.86
2023-02-13T15:28:07.081Z,8.88
2023-02-13T15:29:49.488Z,8.84
2023-02-13T15:31:23.731Z,8.84
2023-02-13T15:32:59.556Z,8.79
2023-02-13T15:34:24.861Z,8.75
2023-02-13T15:35:57.304Z,8.73
2023-02-13T15:37:24.300Z,8.77
2023-02-13T15:39:09.926Z,8.72
2023-02-13T15:40:41.221Z,8.74
2023-02-13T15:42:14.704Z,8.74
2023-02-13T15:43:40.753Z,8.65
2023-02-13T15:45:11.722Z,8.68
2023-02-13T15:50:10.066Z,8.58
2023-02-13T15:54:27.110Z,8.54
2023-02-13T15:56:42.033Z,8.55
2023-02-13T15:58:54.477Z,8.50
2023-02-13T16:00:44.808Z,8.43
2023-02-13T16:02:31.381Z,8.38
2023-02-13T16:04:09.043Z,8.40
2023-02-13T16:05:46.412Z,8.38
2023-02-13T16:07:31.868Z,8.35
2023-02-13T16:09:04.799Z,8.32
2023-02-13T16:10:35.306Z,8.33
2023-02-13T16:12:02.572Z,8.31
2023-02-13T16:13:27.751Z,8.38
2023-02-13T16:14:57.939Z,8.38
2023-02-13T16:16:36.091Z,8.30
2023-02-13T16:18:06.453Z,8.30
2023-02-13T16:19:46.096Z,8.29
2023-02-13T16:21:10.574Z,8.34
2023-02-13T16:22:37.201Z,8.31
2023-02-13T16:24:06.544Z,8.33
2023-02-13T16:25:38.287Z,8.26
2023-02-13T16:27:27.598Z,8.33
2023-02-13T16:28:52.820Z,8.28
2023-02-13T16:30:41.355Z,8.29
2023-02-13T16:32:31.868Z,8.25
2023-02-13T16:33:58.702Z,8.24
2023-02-13T16:35:39.639Z,8.23
2023-02-13T16:37:07.638Z,8.24
2023-02-13T16:47:07.822Z,8.16
2023-02-13T16:48:34.477Z,8.17
2023-02-13T16:50:03.991Z,8.15
2023-02-13T16:51:37.530Z,8.13
2023-02-13T16:53:08.903Z,8.22
2023-02-13T16:54:38.348Z,8.22
2023-02-13T16:56:11.265Z,8.15
2023-02-13T16:57:43.680Z,8.14
2023-02-13T16:59:43.288Z,8.20
2023-02-13T17:01:21.466Z,8.20
2023-02-13T17:02:48.677Z,8.12
2023-02-13T17:05:07.743Z,8.19
2023-02-13T17:06:40.065Z,8.15
2023-02-13T17:08:04.704Z,8.13
2023-02-13T17:09:26.307Z,8.12
2023-02-13T17:11:07.865Z,8.16
2023-02-13T17:12:32.202Z,8.15
2023-02-13T17:13:58.170Z,8.16
2023-02-13T17:15:23.529Z,8.14
2023-02-13T17:16:48.436Z,8.18
2023-02-13T17:18:14.119Z,8.08
2023-02-13T17:23:32.082Z,8.08
2023-02-13T17:27:16.858Z,8.01
2023-02-13T17:28:41.670Z,7.97
2023-02-13T17:30:11.241Z,7.98
2023-02-13T17:31:40.336Z,7.96
2023-02-13T17:33:07.701Z,8.01
2023-02-13T17:34:33.568Z,7.98
2023-02-13T17:43:52.092Z,7.86
2023-02-13T17:45:20.052Z,7.94
2023-02-13T17:46:46.463Z,7.93
2023-02-13T17:48:19.773Z,7.92
2023-02-13T17:49:44.534Z,7.93
2023-02-13T17:51:22.432Z,7.84
2023-02-13T17:53:04.828Z,7.93
2023-02-13T17:54:29.928Z,7.89
2023-02-13T17:56:04.759Z,7.88
2023-02-13T17:57:35.059Z,7.93
2023-02-13T17:59:02.508Z,7.91
2023-02-13T18:00:29.431Z,7.87
2023-02-13T18:01:55.580Z,7.96
2023-02-13T18:03:27.752Z,7.94
2023-02-13T18:04:50.741Z,7.92
2023-02-13T18:06:17.110Z,7.89
2023-02-13T18:07:44.190Z,7.94
2023-02-13T18:09:06.997Z,7.86
2023-02-13T18:10:30.647Z,7.90
2023-02-13T18:12:06.199Z,7.93
2023-02-13T18:16:44.550Z,7.90
2023-02-13T18:18:12.521Z,7.89
2023-02-13T18:19:35.826Z,7.85
2023-02-13T18:21:07.066Z,7.84
2023-02-13T18:22:34.387Z,7.84
2023-02-13T18:24:06.201Z,7.84
2023-02-13T18:25:30.831Z,7.90
2023-02-13T18:27:07.229Z,7.89
2023-02-13T18:28:45.182Z,7.93
2023-02-13T18:30:25.900Z,7.87
2023-02-13T18:31:54.139Z,7.86
2023-02-13T18:33:20.904Z,7.87
2023-02-13T18:37:12.865Z,7.84
2023-02-13T18:39:32.779Z,7.90
2023-02-13T18:43:53.074Z,7.84
2023-02-13T18:45:27.659Z,7.83
2023-02-13T18:46:56.227Z,7.83
2023-02-13T18:48:25.592Z,7.90
2023-02-13T18:49:58.649Z,7.91
2023-02-13T18:51:27.080Z,7.84
2023-02-13T18:52:57.050Z,7.85
2023-02-13T18:54:48.092Z,7.89
2023-02-13T18:56:15.850Z,7.87
2023-02-13T18:57:45.630Z,7.85
2023-02-13T18:59:45.975Z,7.91
2023-02-13T19:01:47.059Z,7.91
2023-02-13T19:08:59.331Z,7.84
2023-02-13T19:11:42.135Z,7.83
2023-02-13T19:13:23.619Z,7.85
2023-02-13T19:14:50.742Z,7.83
2023-02-13T19:20:06.589Z,7.91
2023-02-13T19:24:26.119Z,7.93
2023-02-13T19:26:36.514Z,7.90
2023-02-13T19:28:38.345Z,7.92
2023-02-13T19:30:52.900Z,7.86
2023-02-13T19:33:52.882Z,7.93
2023-02-13T19:35:31.016Z,7.93
2023-02-13T19:37:44.354Z,7.94
2023-02-13T19:42:20.657Z,7.86
2023-02-13T19:46:14.681Z,7.87
2023-02-13T19:48:03.549Z,7.89
2023-02-13T19:58:05.969Z,7.84
2023-02-13T19:59:36.016Z,7.91
2023-02-13T20:01:07.978Z,7.91
2023-02-13T20:02:36.169Z,7.87
2023-02-13T20:04:29.965Z,7.91
2023-02-13T20:06:07.172Z,7.86
2023-02-13T20:07:36.060Z,7.91
2023-02-13T20:10:11.810Z,7.95
2023-02-13T20:15:24.112Z,7.90
2023-02-13T20:17:02.546Z,7.90
2023-02-13T20:20:38.793Z,7.89
2023-02-13T20:22:37.021Z,7.84
2023-02-13T20:24:50.097Z,7.85
2023-02-13T20:27:06.443Z,7.87
2023-02-13T20:28:50.365Z,7.92
2023-02-13T20:30:18.563Z,7.90
2023-02-13T20:32:05.634Z,7.90
2023-02-13T20:33:44.730Z,7.91
2023-02-13T20:35:53.802Z,7.91
2023-02-13T20:37:23.437Z,7.90
2023-02-13T20:38:47.516Z,7.86
2023-02-13T20:40:28.792Z,7.89
2023-02-13T20:42:42.392Z,7.85
2023-02-13T20:44:30.485Z,7.91
2023-02-13T20:46:04.753Z,7.91
2023-02-13T20:47:35.353Z,7.93
2023-02-13T20:49:24.556Z,7.85
2023-02-13T20:51:02.955Z,7.87
2023-02-13T20:52:32.689Z,7.86
2023-02-13T20:58:11.177Z,7.92
2023-02-13T20:59:42.463Z,7.90
2023-02-13T21:01:35.489Z,7.93
2023-02-13T21:06:18.211Z,7.85
2023-02-13T21:07:48.966Z,7.84
2023-02-13T21:09:12.585Z,7.92
2023-02-13T21:10:39.541Z,7.89
2023-02-13T21:12:36.627Z,7.85
2023-02-13T21:14:25.495Z,7.93
2023-02-13T21:15:58.170Z,7.90
2023-02-13T21:20:15.440Z,7.89
2023-02-13T21:22:22.427Z,7.90
2023-02-13T21:24:17.795Z,7.87
2023-02-13T21:25:57.823Z,7.87
2023-02-13T21:30:31.176Z,7.80
2023-02-13T21:33:03.314Z,7.88
2023-02-13T21:35:09.460Z,7.80
2023-02-13T21:36:46.076Z,7.82
2023-02-13T21:38:38.617Z,7.81
2023-02-13T21:40:23.489Z,7.83
2023-02-13T21:42:35.986Z,7.87
2023-02-13T21:44:02.822Z,7.86
2023-02-13T21:50:53.826Z,7.77
2023-02-13T21:52:21.428Z,7.82
2023-02-13T21:53:55.875Z,7.78
2023-02-13T21:55:44.209Z,7.78
2023-02-13T21:57:12.930Z,7.74
2023-02-13T22:01:04.234Z,7.75
2023-02-13T22:02:49.688Z,7.75
2023-02-13T22:04:54.586Z,7.75
2023-02-13T22:45:24.741Z,7.40
2023-02-13T22:46:58.582Z,7.47
2023-02-13T22:48:21.307Z,7.46
2023-02-13T22:49:46.439Z,7.47
2023-02-13T22:51:40.161Z,7.43
2023-02-13T22:53:06.578Z,7.42
2023-02-13T22:54:51.494Z,7.45
2023-02-13T22:56:19.280Z,7.48
2023-02-13T22:57:41.976Z,7.50
2023-02-13T22:59:15.008Z,7.52
2023-02-13T23:05:19.144Z,7.53
2023-02-13T23:10:01.204Z,7.47
2023-02-13T23:11:48.175Z,7.45
2023-02-13T23:13:36.292Z,7.44
2023-02-13T23:15:51.141Z,7.48
2023-02-13T23:17:32.820Z,7.43
2023-02-13T23:18:58.770Z,7.48
2023-02-13T23:20:22.758Z,7.51
2023-02-13T23:21:56.045Z,7.49
2023-02-13T23:23:19.410Z,7.52
2023-02-13T23:24:43.026Z,7.51
2023-02-13T23:28:08.480Z,7.49
2023-02-13T23:29:35.837Z,7.47
2023-02-13T23:30:59.250Z,7.47
2023-02-13T23:32:26.403Z,7.51
2023-02-13T23:33:48.995Z,7.51
2023-02-13T23:35:16.718Z,7.51
2023-02-13T23:36:43.882Z,7.50
2023-02-13T23:38:07.969Z,7.51
2023-02-13T23:39:32.264Z,7.48
2023-02-13T23:40:58.279Z,7.51
2023-02-13T23:42:19.850Z,7.48
2023-02-13T23:43:43.399Z,7.51
2023-02-13T23:45:09.747Z,7.54
2023-02-13T23:46:34.942Z,7.54
2023-02-13T23:48:03.704Z,7.53
2023-02-13T23:49:25.204Z,7.54
2023-02-13T23:50:53.316Z,7.55
2023-02-13T23:52:18.400Z,7.55
2023-02-13T23:53:45.957Z,7.54
2023-02-13T23:55:08.578Z,7.57
2023-02-13T23:56:30.007Z,7.54
2023-02-13T23:57:52.459Z,7.57
2023-02-13T23:59:16.346Z,7.58
